Aérodrome :
LOGIN :

S'inscrire | Disclaimer

   EN    FR    IT 

 










Légende :    VFR   VFR Marginal   IFR   IFR Intensif   IFR Très Intensif
Visi : 
Plafond : 
>= 8 km
>= 3000ft
5 à 8 km
1000 à 3000 ft
1500m à 5 km
500 à 1000 ft
800 à 1500m
200 à 500 ft
< 800m
< 200 ft
Symboles :   Orages  Brouillard  Fortes neiges  Fortes précipitations  Vent > 20 kt
SIGMETs :   Divers  Orages  Givrage  Turbulence  Onde Orograph.  Cendres Volcan.







- Altitude de l'aérodrome : 1768 ft


LEHC - Huesca Pirineos

DERNIER METAR :
  • 220030Z AUTO VRB02KT 9999 NCD 13/07 Q1020

METARs EXPIRÉS :
  • 220000Z AUTO 06004KT 020V080 CAVOK 13/08 Q1020
  • 212330Z AUTO 08004KT 050V110 9999 NCD 13/08 Q1020
  • 212300Z AUTO 06005KT 040V100 9999 NCD 14/09 Q1020
  • 212230Z AUTO VRB02KT 9999 NCD 14/09 Q1020
  • 212200Z AUTO 07003KT 030V100 9999 NCD 14/09 Q1020

TAF TAF LEHC
Valide du 21 à 09h jusqu'au 22 à 09h UTC


210800Z 2109/2209 06006KT 9999 FEW040 TX23/2113Z TN11/2206Z
BECMG 2110/2112 15010KT
BECMG 2120/2122 07008KT
Pas de NOTAMs connus pour ce terrain.
2 SIGMETs publiés pour la FIR Madrid (LECM) :
 
Orages noyés dans la masse
LECM SIGMET 7 VALID 220000/220400 LEVA
LECM MADRID FIR/UIR EMBD TS FCST WI N4002 W00440 - N3554 W00419 - N3556 W00735 - N4001 W00658 - N4002 W00440 TOP FL300 STNR NC=
Orages noyés dans la masse
LECM SIGMET 6 VALID 212000/212400 LEVA
LECM MADRID FIR/UIR EMBD TS FCST W OF LINE N4003 W00501 - N3552 W00426 TOP FL300 STNR NC=



MET'MAP, la Météo Aéronautique d'un coup d'oeil ! - Copyright ORBIFLY Décembre 2007 - Disclaimer

ORBIFLY MET'MAP TEAM :

Programmation & Développement : Alexandra Zaïnal
Conception & Développement : Baudouin d'Aumeries
Co-Programmation & Développement : Marc-Olivier Méhu
Soutien technique & logistique : Manuel Goepfert

Contact : metmap@orbifly.com




SOURCES & CREDITS :

   NOAA